createdAt,value
2018-09-25T00:01:27.717Z,6.70
2018-09-25T00:04:01.194Z,8.17
2018-09-25T00:06:34.813Z,5.90
2018-09-25T00:09:08.242Z,9.90
2018-09-25T00:11:41.622Z,6.27
2018-09-25T00:14:15.387Z,7.40
2018-09-25T00:16:49.021Z,7.73
2018-09-25T00:19:22.498Z,7.77
2018-09-25T00:21:56.074Z,8.60
2018-09-25T00:24:29.674Z,6.20
2018-09-25T00:27:03.075Z,6.70
2018-09-25T00:29:36.619Z,4.87
2018-09-25T00:32:10.150Z,7.47
2018-09-25T00:34:43.755Z,7.33
2018-09-25T00:37:17.338Z,7.37
2018-09-25T00:39:50.941Z,5.80
2018-09-25T00:42:24.409Z,7.80
2018-09-25T00:44:57.841Z,9.30
2018-09-25T00:47:31.218Z,9.20
2018-09-25T00:50:04.822Z,5.37
2018-09-25T00:52:38.258Z,8.13
2018-09-25T00:55:11.971Z,6.63
2018-09-25T00:57:45.454Z,7.40
2018-09-25T01:00:19.199Z,7.13
2018-09-25T01:02:52.639Z,6.70
2018-09-25T01:05:26.178Z,8.07
2018-09-25T01:07:59.706Z,12.80
2018-09-25T01:10:33.192Z,9.40
2018-09-25T01:13:06.834Z,7.80
2018-09-25T01:15:40.280Z,9.50
2018-09-25T01:18:13.833Z,5.40
2018-09-25T01:20:47.266Z,6.87
2018-09-25T01:23:20.800Z,9.03
2018-09-25T01:25:54.285Z,7.10
2018-09-25T01:28:27.843Z,7.63
2018-09-25T01:31:01.250Z,8.70
2018-09-25T01:33:34.757Z,7.03
2018-09-25T01:36:08.411Z,9.47
2018-09-25T01:38:41.989Z,7.83
2018-09-25T01:41:15.592Z,7.40
2018-09-25T01:43:49.199Z,9.83
2018-09-25T01:46:22.793Z,9.97
2018-09-25T01:48:56.238Z,8.43
2018-09-25T01:51:29.738Z,7.20
2018-09-25T01:54:03.242Z,8.27
2018-09-25T01:56:36.743Z,8.03
2018-09-25T01:59:10.502Z,9.37
2018-09-25T02:01:44.081Z,9.33
2018-09-25T02:04:17.600Z,6.30
2018-09-25T02:06:51.199Z,6.30
2018-09-25T02:09:24.554Z,5.70
2018-09-25T02:11:58.157Z,6.00
2018-09-25T02:14:31.697Z,7.97
2018-09-25T02:17:05.136Z,5.93
2018-09-25T02:19:38.586Z,9.13
2018-09-25T02:22:12.239Z,5.57
2018-09-25T02:24:45.650Z,8.73
2018-09-25T02:27:19.168Z,6.53
2018-09-25T02:29:52.708Z,5.30
2018-09-25T02:32:26.180Z,7.73
2018-09-25T02:34:59.698Z,6.10
2018-09-25T02:37:33.231Z,8.43
2018-09-25T02:40:06.686Z,7.33
2018-09-25T02:42:40.004Z,9.70
2018-09-25T02:45:13.600Z,6.10
2018-09-25T02:47:47.312Z,8.27
2018-09-25T02:50:20.934Z,8.43
2018-09-25T02:52:54.311Z,8.43
2018-09-25T02:55:27.778Z,5.03
2018-09-25T02:58:01.319Z,7.23
2018-09-25T03:00:34.844Z,7.47
2018-09-25T03:03:08.414Z,7.70
2018-09-25T03:05:41.914Z,9.17
2018-09-25T03:08:15.496Z,7.60
2018-09-25T03:10:48.993Z,9.63
2018-09-25T03:13:22.708Z,8.50
2018-09-25T03:15:56.178Z,12.63
2018-09-25T03:18:29.726Z,12.50
2018-09-25T03:21:03.046Z,13.03
2018-09-25T03:23:36.691Z,15.10
2018-09-25T03:26:10.262Z,15.00
2018-09-25T03:28:43.762Z,12.53
2018-09-25T03:31:17.294Z,14.40
2018-09-25T03:33:50.770Z,10.47
2018-09-25T03:36:24.347Z,10.63
2018-09-25T03:38:57.673Z,10.50
2018-09-25T03:41:32.353Z,10.67
2018-09-25T03:44:06.026Z,10.87
2018-09-25T03:46:39.374Z,15.10
2018-09-25T03:49:12.969Z,13.00
2018-09-25T03:51:46.566Z,11.57
2018-09-25T03:54:20.004Z,12.23
2018-09-25T03:56:53.557Z,10.40
2018-09-25T03:59:27.390Z,14.90
2018-09-25T04:02:00.870Z,14.50
2018-09-25T04:04:34.561Z,13.90
2018-09-25T04:07:08.123Z,16.90
2018-09-25T04:09:45.512Z,12.80
2018-09-25T04:12:18.989Z,17.47
2018-09-25T04:14:52.601Z,12.50
2018-09-25T04:17:26.106Z,15.27
2018-09-25T04:19:59.575Z,16.50
2018-09-25T04:22:33.173Z,20.83
2018-09-25T04:25:06.701Z,18.37
2018-09-25T04:27:40.239Z,17.53
2018-09-25T04:30:13.781Z,13.43
2018-09-25T04:32:47.288Z,14.43
2018-09-25T04:35:20.866Z,21.63
2018-09-25T04:37:54.544Z,16.80
2018-09-25T04:40:28.142Z,20.23
2018-09-25T04:43:01.667Z,23.17
2018-09-25T04:45:35.125Z,14.77
2018-09-25T04:48:08.728Z,19.30
2018-09-25T04:50:42.210Z,17.80
2018-09-25T04:53:15.641Z,17.63
2018-09-25T04:55:49.102Z,15.50
2018-09-25T04:58:22.456Z,17.20
2018-09-25T05:00:56.046Z,18.00
2018-09-25T05:03:29.426Z,14.73
2018-09-25T05:06:02.961Z,14.57
2018-09-25T05:08:36.458Z,16.60
2018-09-25T05:11:09.890Z,13.80
2018-09-25T05:13:43.382Z,14.67
2018-09-25T05:16:16.800Z,14.10
2018-09-25T05:18:50.420Z,12.17
2018-09-25T05:21:23.829Z,15.87
2018-09-25T05:23:57.303Z,16.77
2018-09-25T05:26:30.846Z,13.97
2018-09-25T05:29:04.286Z,16.60
2018-09-25T05:31:37.886Z,15.87
2018-09-25T05:34:11.553Z,12.63
2018-09-25T05:36:45.039Z,15.10
2018-09-25T05:39:19.633Z,15.27
2018-09-25T05:41:53.049Z,13.77
2018-09-25T05:44:26.824Z,16.10
2018-09-25T05:47:00.251Z,12.30
2018-09-25T05:49:33.834Z,14.67
2018-09-25T05:52:08.594Z,15.90
2018-09-25T05:54:42.385Z,16.23
2018-09-25T05:57:15.874Z,18.93
2018-09-25T05:59:49.497Z,16.23
2018-09-25T06:02:22.975Z,16.73
2018-09-25T06:04:56.604Z,18.90
2018-09-25T06:07:33.920Z,15.67
2018-09-25T06:10:07.543Z,17.20
2018-09-25T06:12:41.061Z,15.30
2018-09-25T06:15:14.726Z,13.43
2018-09-25T06:17:48.230Z,15.70
2018-09-25T06:20:21.765Z,13.53
2018-09-25T06:22:55.193Z,14.87
2018-09-25T06:25:29.123Z,13.87
2018-09-25T06:28:02.561Z,16.43
2018-09-25T06:30:36.076Z,12.37
2018-09-25T06:33:09.648Z,15.53
2018-09-25T06:35:43.262Z,14.33
2018-09-25T06:38:16.858Z,17.80
2018-09-25T06:40:50.671Z,17.23
2018-09-25T06:43:24.287Z,16.77
2018-09-25T06:45:57.844Z,18.90
2018-09-25T06:48:31.383Z,20.30
2018-09-25T06:51:05.165Z,20.80
2018-09-25T06:53:38.860Z,22.83
2018-09-25T06:56:12.501Z,23.73
2018-09-25T06:58:45.976Z,26.33
2018-09-25T07:01:21.919Z,28.47
2018-09-25T07:03:55.533Z,26.17
2018-09-25T07:06:29.082Z,28.27
2018-09-25T07:09:02.510Z,25.27
2018-09-25T07:11:36.054Z,22.73
2018-09-25T07:14:09.586Z,19.70
2018-09-25T07:16:43.086Z,21.73
2018-09-25T07:19:16.637Z,21.37
2018-09-25T07:21:50.142Z,23.93
2018-09-25T07:24:23.667Z,24.20
2018-09-25T07:26:57.189Z,25.53
2018-09-25T07:29:30.575Z,27.67
2018-09-25T07:32:04.263Z,26.03
2018-09-25T07:34:37.805Z,26.80
2018-09-25T07:37:11.327Z,27.33
2018-09-25T07:39:44.801Z,25.63
2018-09-25T07:42:18.398Z,26.97
2018-09-25T07:44:51.832Z,27.47
2018-09-25T07:47:25.299Z,24.67
2018-09-25T07:49:58.782Z,29.87
2018-09-25T07:52:32.246Z,24.57
2018-09-25T07:55:05.607Z,21.23
2018-09-25T07:57:39.181Z,24.53
2018-09-25T08:00:12.939Z,21.27
2018-09-25T08:02:46.311Z,19.10
2018-09-25T08:05:19.903Z,22.60
2018-09-25T08:07:53.277Z,20.23
2018-09-25T08:10:26.878Z,18.77
2018-09-25T08:13:00.376Z,16.10
2018-09-25T08:15:33.869Z,19.77
2018-09-25T08:18:07.335Z,17.30
2018-09-25T08:20:40.873Z,17.33
2018-09-25T08:23:14.386Z,17.47
2018-09-25T08:25:47.878Z,18.23
2018-09-25T08:28:21.371Z,17.17
2018-09-25T08:30:55.002Z,20.40
2018-09-25T08:33:29.571Z,19.13
2018-09-25T08:36:03.037Z,15.73
2018-09-25T08:38:36.709Z,14.97
2018-09-25T08:41:10.107Z,19.03
2018-09-25T08:43:43.647Z,16.27
2018-09-25T08:46:17.132Z,19.13
2018-09-25T08:48:50.705Z,17.03
2018-09-25T08:51:24.190Z,17.97
2018-09-25T08:53:57.758Z,19.17
2018-09-25T08:56:31.182Z,17.27
2018-09-25T08:59:04.501Z,15.53
2018-09-25T09:01:38.122Z,21.10
2018-09-25T09:04:11.941Z,19.47
2018-09-25T09:06:45.432Z,16.90
2018-09-25T09:09:18.974Z,21.37
2018-09-25T09:11:52.497Z,17.43
2018-09-25T09:14:26.111Z,20.27
2018-09-25T09:16:59.673Z,16.07
2018-09-25T09:19:33.352Z,14.70
2018-09-25T09:22:06.906Z,16.13
2018-09-25T09:24:40.410Z,12.83
2018-09-25T09:27:14.009Z,13.93
2018-09-25T09:29:48.044Z,15.50
2018-09-25T09:32:21.660Z,9.53
2018-09-25T09:34:56.368Z,13.63
2018-09-25T09:37:29.992Z,12.33
2018-09-25T09:40:03.605Z,10.17
2018-09-25T09:42:37.093Z,10.90
2018-09-25T09:45:10.633Z,11.13
2018-09-25T09:47:44.027Z,10.67
2018-09-25T09:50:17.629Z,11.07
2018-09-25T09:52:50.925Z,12.30
2018-09-25T09:55:24.483Z,8.70
2018-09-25T09:57:58.059Z,11.27
2018-09-25T10:00:31.686Z,10.27
2018-09-25T10:03:05.289Z,10.47
2018-09-25T10:05:38.878Z,9.77
2018-09-25T10:08:12.452Z,8.43
2018-09-25T10:10:45.924Z,10.27
2018-09-25T10:13:19.517Z,9.50
2018-09-25T10:15:52.993Z,12.40
2018-09-25T10:18:26.579Z,8.87
2018-09-25T10:21:00.146Z,5.97
2018-09-25T10:23:33.631Z,7.73
2018-09-25T10:26:07.103Z,7.80
2018-09-25T10:28:40.666Z,7.70
2018-09-25T10:31:14.194Z,7.07
2018-09-25T10:33:47.806Z,7.93
2018-09-25T10:36:21.502Z,7.60
2018-09-25T10:38:54.957Z,6.30
2018-09-25T10:41:28.534Z,8.13
2018-09-25T10:44:02.911Z,6.90
2018-09-25T10:46:36.608Z,6.47
2018-09-25T10:49:09.965Z,4.47
2018-09-25T10:51:43.525Z,4.33
2018-09-25T10:54:16.874Z,7.37
2018-09-25T10:56:50.229Z,6.63
2018-09-25T10:59:23.745Z,3.20
2018-09-25T11:01:57.427Z,6.07
2018-09-25T11:04:31.138Z,6.53
2018-09-25T11:07:04.657Z,5.23
2018-09-25T11:09:38.162Z,9.47
2018-09-25T11:12:11.342Z,6.90
2018-09-25T11:14:44.810Z,7.40
2018-09-25T11:17:18.482Z,5.13
2018-09-25T11:19:51.867Z,5.13
2018-09-25T11:22:25.362Z,4.40
2018-09-25T11:24:58.970Z,6.70
2018-09-25T11:27:32.611Z,4.87
2018-09-25T11:30:06.243Z,7.77
2018-09-25T11:32:39.706Z,5.47
2018-09-25T11:35:13.319Z,7.00
2018-09-25T11:37:46.883Z,5.73
2018-09-25T11:40:20.395Z,5.57
2018-09-25T11:42:53.895Z,4.77
2018-09-25T11:45:27.362Z,6.03
2018-09-25T11:48:00.746Z,6.53
2018-09-25T11:50:34.466Z,4.70
2018-09-25T11:53:08.054Z,5.90
2018-09-25T11:55:41.605Z,4.30
2018-09-25T11:58:15.075Z,4.03
2018-09-25T12:00:48.681Z,4.90
2018-09-25T12:03:22.337Z,6.33
2018-09-25T12:05:55.934Z,9.90
2018-09-25T12:08:29.397Z,4.50
2018-09-25T12:11:02.957Z,11.00
2018-09-25T12:13:36.517Z,5.40
2018-09-25T12:16:10.010Z,3.23
2018-09-25T12:18:43.520Z,6.03
2018-09-25T12:21:16.931Z,3.77
2018-09-25T12:23:50.485Z,4.40
2018-09-25T12:26:23.929Z,5.30
2018-09-25T12:28:57.398Z,4.57
2018-09-25T12:31:30.975Z,4.60
2018-09-25T12:34:04.654Z,5.00
2018-09-25T12:36:38.373Z,6.17
2018-09-25T12:39:13.427Z,4.90
2018-09-25T12:41:47.158Z,5.50
2018-09-25T12:44:20.774Z,3.67
2018-09-25T12:46:54.130Z,4.63
2018-09-25T12:49:27.821Z,4.70
2018-09-25T12:52:01.267Z,8.27
2018-09-25T12:54:34.931Z,4.83
2018-09-25T12:57:08.602Z,2.63
2018-09-25T12:59:42.081Z,3.47
2018-09-25T13:02:15.697Z,2.83
2018-09-25T13:04:50.389Z,6.93
2018-09-25T13:07:23.888Z,3.00
2018-09-25T13:09:57.430Z,5.03
2018-09-25T13:12:30.974Z,5.60
2018-09-25T13:15:04.662Z,2.37
2018-09-25T13:17:38.106Z,2.70
2018-09-25T13:20:11.661Z,3.50
2018-09-25T13:22:45.392Z,4.43
2018-09-25T13:25:18.856Z,4.20
2018-09-25T13:27:52.216Z,3.73
2018-09-25T13:30:25.754Z,4.00
2018-09-25T13:32:59.343Z,4.13
2018-09-25T13:35:32.953Z,1.50
2018-09-25T13:38:06.326Z,5.50
2018-09-25T13:40:39.821Z,4.47
2018-09-25T13:43:13.358Z,3.13
2018-09-25T13:45:46.753Z,3.17
2018-09-25T13:48:20.225Z,3.27
2018-09-25T13:50:53.705Z,5.50
2018-09-25T13:53:27.242Z,1.77
2018-09-25T13:56:00.827Z,4.87
2018-09-25T13:58:34.322Z,3.30
2018-09-25T14:01:07.784Z,3.60
2018-09-25T14:03:41.284Z,4.23
2018-09-25T14:06:14.880Z,2.80
2018-09-25T14:08:48.302Z,4.00
2018-09-25T14:11:21.790Z,3.70
2018-09-25T14:13:55.248Z,6.73
2018-09-25T14:16:28.731Z,2.57
2018-09-25T14:19:02.274Z,3.40
2018-09-25T14:21:35.829Z,4.30
2018-09-25T14:24:09.392Z,2.23
2018-09-25T14:26:42.844Z,2.23
2018-09-25T14:29:16.509Z,0.57
2018-09-25T14:31:50.136Z,3.73
2018-09-25T14:34:23.778Z,1.87
2018-09-25T14:36:57.597Z,2.40
2018-09-25T14:39:31.034Z,2.47
2018-09-25T14:42:04.554Z,1.93
2018-09-25T14:44:38.005Z,3.73
2018-09-25T14:47:11.819Z,3.50
2018-09-25T14:49:45.181Z,3.90
2018-09-25T14:52:18.562Z,2.83
2018-09-25T14:54:52.119Z,4.10
2018-09-25T14:57:25.607Z,3.70
2018-09-25T14:59:59.133Z,2.73
2018-09-25T15:02:32.583Z,4.30
2018-09-25T15:05:05.954Z,3.03
2018-09-25T15:07:39.350Z,2.10
2018-09-25T15:10:12.907Z,2.83
2018-09-25T15:12:46.318Z,6.73
2018-09-25T15:15:19.735Z,3.77
2018-09-25T15:17:53.236Z,4.63
2018-09-25T15:20:26.757Z,3.70
2018-09-25T15:23:00.378Z,2.13
2018-09-25T15:25:33.783Z,5.03
2018-09-25T15:28:07.193Z,2.20
2018-09-25T15:30:40.754Z,2.27
2018-09-25T15:33:14.276Z,2.80
2018-09-25T15:35:47.940Z,2.57
2018-09-25T15:38:21.465Z,3.97
2018-09-25T15:40:55.124Z,2.17
2018-09-25T15:43:28.471Z,1.93
2018-09-25T15:46:02.043Z,3.43
2018-09-25T15:48:35.539Z,5.10
2018-09-25T15:51:09.286Z,1.67
2018-09-25T15:53:42.910Z,2.50
2018-09-25T15:56:16.511Z,6.30
2018-09-25T15:58:50.185Z,1.23
2018-09-25T16:01:23.639Z,2.60
2018-09-25T16:03:57.172Z,1.27
2018-09-25T16:06:30.661Z,5.37
2018-09-25T16:09:04.242Z,2.17
2018-09-25T16:11:37.891Z,4.57
2018-09-25T16:14:11.587Z,4.17
2018-09-25T16:16:44.986Z,2.17
2018-09-25T16:19:18.570Z,6.80
2018-09-25T16:21:52.290Z,3.90
2018-09-25T16:24:25.867Z,3.10
2018-09-25T16:26:59.308Z,4.57
2018-09-25T16:29:32.829Z,5.10
2018-09-25T16:32:06.305Z,3.33
2018-09-25T16:34:39.914Z,5.87
2018-09-25T16:37:13.393Z,2.50
2018-09-25T16:39:46.890Z,4.23
2018-09-25T16:42:20.377Z,5.50
2018-09-25T16:44:53.849Z,5.17
2018-09-25T16:47:27.403Z,4.00
2018-09-25T16:50:00.859Z,3.00
2018-09-25T16:52:34.577Z,5.10
2018-09-25T16:55:08.139Z,3.40
2018-09-25T16:57:41.755Z,3.23
2018-09-25T17:00:15.298Z,4.13
2018-09-25T17:02:48.833Z,4.73
2018-09-25T17:05:22.158Z,4.03
2018-09-25T17:07:55.726Z,1.03
2018-09-25T17:10:29.330Z,4.80
2018-09-25T17:13:02.838Z,2.83
2018-09-25T17:15:36.456Z,3.70
2018-09-25T17:18:10.101Z,3.93
2018-09-25T17:20:43.539Z,6.43
2018-09-25T17:23:17.125Z,4.77
2018-09-25T17:25:50.769Z,5.83
2018-09-25T17:28:24.423Z,2.97
2018-09-25T17:30:58.055Z,5.63
2018-09-25T17:33:31.819Z,2.37
2018-09-25T17:36:05.323Z,3.97
2018-09-25T17:38:38.925Z,5.60
2018-09-25T17:41:12.582Z,6.10
2018-09-25T17:43:45.988Z,7.00
2018-09-25T17:46:19.644Z,2.93
2018-09-25T17:48:53.158Z,2.70
2018-09-25T17:51:26.558Z,3.43
2018-09-25T17:54:00.078Z,5.03
2018-09-25T17:56:33.645Z,5.43
2018-09-25T17:59:07.078Z,7.83
2018-09-25T18:01:40.643Z,5.53
2018-09-25T18:04:14.143Z,5.90
2018-09-25T18:06:47.590Z,6.87
2018-09-25T18:09:21.169Z,12.23
2018-09-25T18:11:54.708Z,8.93
2018-09-25T18:14:28.242Z,10.73
2018-09-25T18:17:01.690Z,9.30
2018-09-25T18:19:35.079Z,9.23
2018-09-25T18:22:08.777Z,9.40
2018-09-25T18:24:42.134Z,7.87
2018-09-25T18:27:15.861Z,8.33
2018-09-25T18:29:49.215Z,8.33
2018-09-25T18:32:22.713Z,8.73
2018-09-25T18:34:56.243Z,8.90
2018-09-25T18:37:29.829Z,9.20
2018-09-25T18:40:03.513Z,10.23
2018-09-25T18:42:36.975Z,11.37
2018-09-25T18:45:10.656Z,9.43
2018-09-25T18:47:44.218Z,12.47
2018-09-25T18:50:17.779Z,9.27
2018-09-25T18:52:51.365Z,8.30
2018-09-25T18:55:24.996Z,8.30
2018-09-25T18:57:58.419Z,11.17
2018-09-25T19:00:31.812Z,7.53
2018-09-25T19:03:05.455Z,10.07
2018-09-25T19:05:39.061Z,5.97
2018-09-25T19:08:12.538Z,7.80
2018-09-25T19:10:46.159Z,10.10
2018-09-25T19:13:19.558Z,8.77
2018-09-25T19:15:53.090Z,8.80
2018-09-25T19:18:26.610Z,8.60
2018-09-25T19:21:00.082Z,7.97
2018-09-25T19:23:33.551Z,7.40
2018-09-25T19:26:07.130Z,7.10
2018-09-25T19:28:40.498Z,8.77
2018-09-25T19:31:14.106Z,6.97
2018-09-25T19:33:47.740Z,5.63
2018-09-25T19:36:21.274Z,8.43
2018-09-25T19:38:54.801Z,8.30
2018-09-25T19:41:28.296Z,6.83
2018-09-25T19:44:01.790Z,9.43
2018-09-25T19:46:35.342Z,7.20
2018-09-25T19:49:08.849Z,7.67
2018-09-25T19:51:42.527Z,4.03
2018-09-25T19:54:16.046Z,7.43
2018-09-25T19:56:49.737Z,9.20
2018-09-25T19:59:23.334Z,7.07
2018-09-25T20:01:56.973Z,7.10
2018-09-25T20:04:30.502Z,6.77
2018-09-25T20:07:04.170Z,7.63
2018-09-25T20:09:37.701Z,7.27
2018-09-25T20:12:11.214Z,9.57
2018-09-25T20:14:48.394Z,6.07
2018-09-25T20:17:21.921Z,12.00
2018-09-25T20:19:55.427Z,8.70
2018-09-25T20:22:35.079Z,6.00
2018-09-25T20:25:08.619Z,12.43
2018-09-25T20:27:42.153Z,11.37
2018-09-25T20:30:15.787Z,7.83
2018-09-25T20:32:49.360Z,9.40
2018-09-25T20:35:32.022Z,7.07
2018-09-25T20:38:05.744Z,5.63
2018-09-25T20:40:39.419Z,6.57
2018-09-25T20:43:13.073Z,8.63
2018-09-25T20:45:46.588Z,8.43
2018-09-25T20:48:20.167Z,6.83
2018-09-25T20:50:53.813Z,8.07
2018-09-25T20:53:27.213Z,6.33
2018-09-25T20:56:00.677Z,8.37
2018-09-25T20:58:34.283Z,8.50
2018-09-25T21:01:07.883Z,6.73
2018-09-25T21:03:41.507Z,8.23
2018-09-25T21:06:15.125Z,6.83
2018-09-25T21:08:48.507Z,13.03
2018-09-25T21:11:22.046Z,7.73
2018-09-25T21:13:55.515Z,6.83
2018-09-25T21:16:29.175Z,8.77
2018-09-25T21:19:02.734Z,5.33
2018-09-25T21:21:36.263Z,7.30
2018-09-25T21:24:09.997Z,6.90
2018-09-25T21:26:43.369Z,9.90
2018-09-25T21:29:16.941Z,9.80
2018-09-25T21:31:50.523Z,7.20
2018-09-25T21:34:23.198Z,7.20
2018-09-25T21:36:56.652Z,5.60
2018-09-25T21:39:30.186Z,6.33
2018-09-25T21:42:03.894Z,7.03
2018-09-25T21:44:37.435Z,6.13
2018-09-25T21:47:11.002Z,7.33
2018-09-25T21:49:44.338Z,8.97
2018-09-25T21:52:17.864Z,9.30
2018-09-25T21:54:51.386Z,6.70
2018-09-25T21:57:25.197Z,8.67
2018-09-25T21:59:58.383Z,6.20
2018-09-25T22:02:31.837Z,6.37
2018-09-25T22:05:05.278Z,6.00
2018-09-25T22:07:38.769Z,8.77
2018-09-25T22:10:12.174Z,8.23
2018-09-25T22:12:45.774Z,8.67
2018-09-25T22:15:19.408Z,6.23
2018-09-25T22:17:52.927Z,6.03
2018-09-25T22:20:26.438Z,7.90
2018-09-25T22:22:59.929Z,6.40
2018-09-25T22:25:33.247Z,7.20
2018-09-25T22:28:06.629Z,6.47
2018-09-25T22:30:40.090Z,7.90
2018-09-25T22:33:13.566Z,7.50
2018-09-25T22:35:47.172Z,7.80
2018-09-25T22:38:20.817Z,8.57
2018-09-25T22:40:54.231Z,11.03
2018-09-25T22:43:27.727Z,6.90
2018-09-25T22:46:01.179Z,7.80
2018-09-25T22:48:34.826Z,9.83
2018-09-25T22:51:08.410Z,9.83
2018-09-25T22:53:41.886Z,6.47
2018-09-25T22:56:15.218Z,5.90
2018-09-25T22:58:48.809Z,9.20
2018-09-25T23:01:22.157Z,10.10
2018-09-25T23:03:55.676Z,7.10
2018-09-25T23:06:29.155Z,7.80
2018-09-25T23:09:02.654Z,8.57
2018-09-25T23:11:36.130Z,7.43
2018-09-25T23:14:09.682Z,7.17
2018-09-25T23:16:43.274Z,6.67
2018-09-25T23:19:16.718Z,6.37
2018-09-25T23:21:50.211Z,11.77
2018-09-25T23:24:23.684Z,7.83
2018-09-25T23:26:57.081Z,5.70
2018-09-25T23:29:30.872Z,5.10
2018-09-25T23:32:04.453Z,4.50
2018-09-25T23:34:38.145Z,6.77
2018-09-25T23:37:11.682Z,7.30
2018-09-25T23:40:00.013Z,7.90
2018-09-25T23:42:35.656Z,4.27
2018-09-25T23:45:09.369Z,4.40
2018-09-25T23:48:41.393Z,8.27
2018-09-25T23:51:14.978Z,6.40
2018-09-25T23:54:46.072Z,5.73
2018-09-25T23:57:19.154Z,8.17
2018-09-25T23:59:53.626Z,6.87
